sensor_id;sensor_type;location;lat;lon;timestamp;temperature;humidity
24802;DHT22;12898;50.520;12.152;2022-12-07T00:01:30;1.40;99.90
24802;DHT22;12898;50.520;12.152;2022-12-07T00:04:00;1.40;99.90
24802;DHT22;12898;50.520;12.152;2022-12-07T00:06:31;1.40;99.90
24802;DHT22;12898;50.520;12.152;2022-12-07T00:09:01;1.40;99.90
24802;DHT22;12898;50.520;12.152;2022-12-07T00:11:27;1.30;99.90
24802;DHT22;12898;50.520;12.152;2022-12-07T00:13:55;1.30;99.90
24802;DHT22;12898;50.520;12.152;2022-12-07T00:16:23;1.40;99.90
24802;DHT22;12898;50.520;12.152;2022-12-07T00:18:50;1.40;99.90
24802;DHT22;12898;50.520;12.152;2022-12-07T00:21:25;1.30;99.90
24802;DHT22;12898;50.520;12.152;2022-12-07T00:23:55;1.30;99.90
24802;DHT22;12898;50.520;12.152;2022-12-07T00:26:27;1.30;99.90
24802;DHT22;12898;50.520;12.152;2022-12-07T00:28:56;1.30;99.90
24802;DHT22;12898;50.520;12.152;2022-12-07T00:31:26;1.30;99.90
24802;DHT22;12898;50.520;12.152;2022-12-07T00:33:52;1.30;99.90
24802;DHT22;12898;50.520;12.152;2022-12-07T00:36:20;1.30;99.90
24802;DHT22;12898;50.520;12.152;2022-12-07T00:38:47;1.20;99.90
24802;DHT22;12898;50.520;12.152;2022-12-07T00:41:18;1.20;99.90
24802;DHT22;12898;50.520;12.152;2022-12-07T00:43:47;1.10;99.90
24802;DHT22;12898;50.520;12.152;2022-12-07T00:46:14;1.00;99.90
24802;DHT22;12898;50.520;12.152;2022-12-07T00:48:40;0.80;99.90
24802;DHT22;12898;50.520;12.152;2022-12-07T00:51:07;0.80;99.90
24802;DHT22;12898;50.520;12.152;2022-12-07T00:53:35;0.70;99.90
24802;DHT22;12898;50.520;12.152;2022-12-07T00:56:27;0.60;99.90
24802;DHT22;12898;50.520;12.152;2022-12-07T00:59:01;0.60;99.90
24802;DHT22;12898;50.520;12.152;2022-12-07T01:01:30;0.60;99.90
24802;DHT22;12898;50.520;12.152;2022-12-07T01:03:57;0.50;99.90
24802;DHT22;12898;50.520;12.152;2022-12-07T01:06:24;0.50;99.90
24802;DHT22;12898;50.520;12.152;2022-12-07T01:08:51;0.60;99.90
24802;DHT22;12898;50.520;12.152;2022-12-07T01:11:20;0.60;99.90
24802;DHT22;12898;50.520;12.152;2022-12-07T01:13:49;0.60;99.90
24802;DHT22;12898;50.520;12.152;2022-12-07T01:16:16;0.60;99.90
24802;DHT22;12898;50.520;12.152;2022-12-07T01:18:45;0.60;99.90
24802;DHT22;12898;50.520;12.152;2022-12-07T01:21:15;0.60;99.90
24802;DHT22;12898;50.520;12.152;2022-12-07T01:23:48;0.60;99.90
24802;DHT22;12898;50.520;12.152;2022-12-07T01:26:17;0.60;99.90
24802;DHT22;12898;50.520;12.152;2022-12-07T01:28:46;0.60;99.90
24802;DHT22;12898;50.520;12.152;2022-12-07T01:31:18;0.50;99.90
24802;DHT22;12898;50.520;12.152;2022-12-07T01:33:46;0.50;99.90
24802;DHT22;12898;50.520;12.152;2022-12-07T01:36:24;0.50;99.90
24802;DHT22;12898;50.520;12.152;2022-12-07T01:38:54;0.50;99.90
24802;DHT22;12898;50.520;12.152;2022-12-07T01:41:23;0.40;99.90
24802;DHT22;12898;50.520;12.152;2022-12-07T01:46:55;0.20;99.90
24802;DHT22;12898;50.520;12.152;2022-12-07T01:54:51;-0.30;99.90
24802;DHT22;12898;50.520;12.152;2022-12-07T01:57:19;-0.40;99.90
24802;DHT22;12898;50.520;12.152;2022-12-07T01:59:47;-0.50;99.90
24802;DHT22;12898;50.520;12.152;2022-12-07T02:02:27;-0.50;99.90
24802;DHT22;12898;50.520;12.152;2022-12-07T02:04:57;-0.60;99.90
24802;DHT22;12898;50.520;12.152;2022-12-07T02:07:25;-0.60;99.90
24802;DHT22;12898;50.520;12.152;2022-12-07T02:09:52;-0.60;99.90
24802;DHT22;12898;50.520;12.152;2022-12-07T02:12:18;-0.60;99.90
24802;DHT22;12898;50.520;12.152;2022-12-07T02:14:45;-0.60;99.90
24802;DHT22;12898;50.520;12.152;2022-12-07T02:17:31;-0.60;99.90
24802;DHT22;12898;50.520;12.152;2022-12-07T02:20:30;-0.60;99.90
24802;DHT22;12898;50.520;12.152;2022-12-07T02:23:32;-0.70;99.90
24802;DHT22;12898;50.520;12.152;2022-12-07T02:26:26;-0.70;99.90
24802;DHT22;12898;50.520;12.152;2022-12-07T02:29:39;-0.70;99.90
24802;DHT22;12898;50.520;12.152;2022-12-07T02:42:51;-0.80;99.90
24802;DHT22;12898;50.520;12.152;2022-12-07T02:45:22;-0.90;99.90
24802;DHT22;12898;50.520;12.152;2022-12-07T02:47:53;-0.90;99.90
24802;DHT22;12898;50.520;12.152;2022-12-07T02:50:20;-0.90;99.90
24802;DHT22;12898;50.520;12.152;2022-12-07T02:52:46;-0.90;99.90
24802;DHT22;12898;50.520;12.152;2022-12-07T02:55:14;-1.00;99.90
24802;DHT22;12898;50.520;12.152;2022-12-07T03:00:59;-1.00;99.90
24802;DHT22;12898;50.520;12.152;2022-12-07T03:03:41;-1.00;99.90
24802;DHT22;12898;50.520;12.152;2022-12-07T03:06:30;-1.00;99.90
24802;DHT22;12898;50.520;12.152;2022-12-07T03:09:20;-1.00;99.90
24802;DHT22;12898;50.520;12.152;2022-12-07T03:11:51;-1.00;99.90
24802;DHT22;12898;50.520;12.152;2022-12-07T03:14:25;-1.00;99.90
24802;DHT22;12898;50.520;12.152;2022-12-07T03:17:15;-1.00;99.90
24802;DHT22;12898;50.520;12.152;2022-12-07T03:19:45;-0.90;99.90
24802;DHT22;12898;50.520;12.152;2022-12-07T03:22:12;-0.90;99.90
24802;DHT22;12898;50.520;12.152;2022-12-07T03:24:46;-0.90;99.90
24802;DHT22;12898;50.520;12.152;2022-12-07T03:27:22;-0.80;99.90
24802;DHT22;12898;50.520;12.152;2022-12-07T03:33:11;-0.80;99.90
24802;DHT22;12898;50.520;12.152;2022-12-07T03:35:53;-0.80;99.90
24802;DHT22;12898;50.520;12.152;2022-12-07T03:38:44;-0.90;99.90
24802;DHT22;12898;50.520;12.152;2022-12-07T03:41:22;-0.80;99.90
24802;DHT22;12898;50.520;12.152;2022-12-07T03:43:51;-0.70;99.90
24802;DHT22;12898;50.520;12.152;2022-12-07T03:46:33;-0.60;99.90
24802;DHT22;12898;50.520;12.152;2022-12-07T03:54:41;-0.40;99.90
24802;DHT22;12898;50.520;12.152;2022-12-07T03:57:12;-0.30;99.90
24802;DHT22;12898;50.520;12.152;2022-12-07T03:59:38;-0.30;99.90
24802;DHT22;12898;50.520;12.152;2022-12-07T04:02:06;-0.20;99.90
24802;DHT22;12898;50.520;12.152;2022-12-07T04:04:33;-0.10;99.90
24802;DHT22;12898;50.520;12.152;2022-12-07T04:06:59;-0.10;99.90
24802;DHT22;12898;50.520;12.152;2022-12-07T04:09:25;0.00;99.90
24802;DHT22;12898;50.520;12.152;2022-12-07T04:11:51;0.00;99.90
24802;DHT22;12898;50.520;12.152;2022-12-07T04:14:17;0.10;99.90
24802;DHT22;12898;50.520;12.152;2022-12-07T04:16:54;0.10;99.90
24802;DHT22;12898;50.520;12.152;2022-12-07T04:19:24;0.10;99.90
24802;DHT22;12898;50.520;12.152;2022-12-07T04:21:52;0.10;99.90
24802;DHT22;12898;50.520;12.152;2022-12-07T04:24:18;0.00;99.90
24802;DHT22;12898;50.520;12.152;2022-12-07T04:26:46;0.10;99.90
24802;DHT22;12898;50.520;12.152;2022-12-07T04:29:13;0.10;99.90
24802;DHT22;12898;50.520;12.152;2022-12-07T04:31:39;0.20;99.90
24802;DHT22;12898;50.520;12.152;2022-12-07T04:34:06;0.20;99.90
24802;DHT22;12898;50.520;12.152;2022-12-07T04:36:32;0.20;99.90
24802;DHT22;12898;50.520;12.152;2022-12-07T04:38:58;0.30;99.90
24802;DHT22;12898;50.520;12.152;2022-12-07T04:41:23;0.30;99.90
24802;DHT22;12898;50.520;12.152;2022-12-07T04:46:20;0.40;99.90
24802;DHT22;12898;50.520;12.152;2022-12-07T04:48:46;0.40;99.90
24802;DHT22;12898;50.520;12.152;2022-12-07T04:51:12;0.40;99.90
24802;DHT22;12898;50.520;12.152;2022-12-07T04:53:39;0.50;99.90
24802;DHT22;12898;50.520;12.152;2022-12-07T04:56:04;0.50;99.90
24802;DHT22;12898;50.520;12.152;2022-12-07T04:58:30;0.50;99.90
24802;DHT22;12898;50.520;12.152;2022-12-07T05:00:56;0.50;99.90
24802;DHT22;12898;50.520;12.152;2022-12-07T05:03:21;0.50;99.90
24802;DHT22;12898;50.520;12.152;2022-12-07T05:05:47;0.50;99.90
24802;DHT22;12898;50.520;12.152;2022-12-07T05:08:13;0.60;99.90
24802;DHT22;12898;50.520;12.152;2022-12-07T05:10:39;0.60;99.90
24802;DHT22;12898;50.520;12.152;2022-12-07T05:13:04;0.60;99.90
24802;DHT22;12898;50.520;12.152;2022-12-07T05:15:30;0.60;99.90
24802;DHT22;12898;50.520;12.152;2022-12-07T05:17:55;0.60;99.90
24802;DHT22;12898;50.520;12.152;2022-12-07T05:20:21;0.70;99.90
24802;DHT22;12898;50.520;12.152;2022-12-07T05:22:47;0.70;99.90
24802;DHT22;12898;50.520;12.152;2022-12-07T05:25:12;0.70;99.90
24802;DHT22;12898;50.520;12.152;2022-12-07T05:27:38;0.80;99.90
24802;DHT22;12898;50.520;12.152;2022-12-07T05:30:05;0.80;99.90
24802;DHT22;12898;50.520;12.152;2022-12-07T05:32:31;0.90;99.90
24802;DHT22;12898;50.520;12.152;2022-12-07T05:34:57;0.90;99.90
24802;DHT22;12898;50.520;12.152;2022-12-07T05:37:23;0.90;99.90
24802;DHT22;12898;50.520;12.152;2022-12-07T05:39:49;0.90;99.90
24802;DHT22;12898;50.520;12.152;2022-12-07T05:42:14;0.90;99.90
24802;DHT22;12898;50.520;12.152;2022-12-07T05:44:42;0.90;99.90
24802;DHT22;12898;50.520;12.152;2022-12-07T05:47:09;0.90;99.90
24802;DHT22;12898;50.520;12.152;2022-12-07T05:49:38;0.90;99.90
24802;DHT22;12898;50.520;12.152;2022-12-07T05:52:04;1.00;99.90
24802;DHT22;12898;50.520;12.152;2022-12-07T05:54:30;1.00;99.90
24802;DHT22;12898;50.520;12.152;2022-12-07T05:56:56;1.00;99.90
24802;DHT22;12898;50.520;12.152;2022-12-07T05:59:23;1.00;99.90
24802;DHT22;12898;50.520;12.152;2022-12-07T06:01:50;1.00;99.90
24802;DHT22;12898;50.520;12.152;2022-12-07T06:04:17;1.00;99.90
24802;DHT22;12898;50.520;12.152;2022-12-07T06:06:43;1.00;99.90
24802;DHT22;12898;50.520;12.152;2022-12-07T06:09:09;1.00;99.90
24802;DHT22;12898;50.520;12.152;2022-12-07T06:11:35;1.00;99.90
24802;DHT22;12898;50.520;12.152;2022-12-07T06:14:19;1.00;99.90
24802;DHT22;12898;50.520;12.152;2022-12-07T06:16:45;1.00;99.90
24802;DHT22;12898;50.520;12.152;2022-12-07T06:19:11;1.00;99.90
24802;DHT22;12898;50.520;12.152;2022-12-07T06:21:36;1.00;99.90
24802;DHT22;12898;50.520;12.152;2022-12-07T06:24:02;1.10;99.90
24802;DHT22;12898;50.520;12.152;2022-12-07T06:26:28;1.10;99.90
24802;DHT22;12898;50.520;12.152;2022-12-07T06:28:54;1.10;99.90
24802;DHT22;12898;50.520;12.152;2022-12-07T06:31:19;1.20;99.90
24802;DHT22;12898;50.520;12.152;2022-12-07T06:33:45;1.20;99.90
24802;DHT22;12898;50.520;12.152;2022-12-07T06:36:11;1.20;99.90
24802;DHT22;12898;50.520;12.152;2022-12-07T06:38:37;1.20;99.90
24802;DHT22;12898;50.520;12.152;2022-12-07T06:41:03;1.20;99.90
24802;DHT22;12898;50.520;12.152;2022-12-07T06:43:29;1.20;99.90
24802;DHT22;12898;50.520;12.152;2022-12-07T06:45:55;1.30;99.90
24802;DHT22;12898;50.520;12.152;2022-12-07T06:48:20;1.20;99.90
24802;DHT22;12898;50.520;12.152;2022-12-07T06:50:47;1.30;99.90
24802;DHT22;12898;50.520;12.152;2022-12-07T06:53:13;1.30;99.90
24802;DHT22;12898;50.520;12.152;2022-12-07T06:55:39;1.30;99.90
24802;DHT22;12898;50.520;12.152;2022-12-07T06:58:05;1.20;99.90
24802;DHT22;12898;50.520;12.152;2022-12-07T07:00:30;1.30;99.90
24802;DHT22;12898;50.520;12.152;2022-12-07T07:02:56;1.30;99.90
24802;DHT22;12898;50.520;12.152;2022-12-07T07:05:22;1.30;99.90
24802;DHT22;12898;50.520;12.152;2022-12-07T07:07:49;1.30;99.90
24802;DHT22;12898;50.520;12.152;2022-12-07T07:10:14;1.30;99.90
24802;DHT22;12898;50.520;12.152;2022-12-07T07:12:40;1.30;99.90
24802;DHT22;12898;50.520;12.152;2022-12-07T07:15:06;1.30;99.90
24802;DHT22;12898;50.520;12.152;2022-12-07T07:17:32;1.30;99.90
24802;DHT22;12898;50.520;12.152;2022-12-07T07:19:58;1.30;99.90
24802;DHT22;12898;50.520;12.152;2022-12-07T07:22:23;1.40;99.90
24802;DHT22;12898;50.520;12.152;2022-12-07T07:24:49;1.40;99.90
24802;DHT22;12898;50.520;12.152;2022-12-07T07:27:15;1.40;99.90
24802;DHT22;12898;50.520;12.152;2022-12-07T07:29:40;1.40;99.90
24802;DHT22;12898;50.520;12.152;2022-12-07T07:32:06;1.40;99.90
24802;DHT22;12898;50.520;12.152;2022-12-07T07:34:33;1.40;99.90
24802;DHT22;12898;50.520;12.152;2022-12-07T07:36:58;1.40;99.90
24802;DHT22;12898;50.520;12.152;2022-12-07T07:39:24;1.40;99.90
24802;DHT22;12898;50.520;12.152;2022-12-07T07:41:50;1.40;99.90
24802;DHT22;12898;50.520;12.152;2022-12-07T07:44:15;1.40;99.90
24802;DHT22;12898;50.520;12.152;2022-12-07T07:46:41;1.40;99.90
24802;DHT22;12898;50.520;12.152;2022-12-07T07:49:07;1.50;99.90
24802;DHT22;12898;50.520;12.152;2022-12-07T07:51:35;1.50;99.90
24802;DHT22;12898;50.520;12.152;2022-12-07T07:54:01;1.50;99.90
24802;DHT22;12898;50.520;12.152;2022-12-07T07:56:26;1.50;99.90
24802;DHT22;12898;50.520;12.152;2022-12-07T07:58:52;1.50;99.90
24802;DHT22;12898;50.520;12.152;2022-12-07T08:01:18;1.50;99.90
24802;DHT22;12898;50.520;12.152;2022-12-07T08:03:46;1.60;99.90
24802;DHT22;12898;50.520;12.152;2022-12-07T08:06:12;1.60;99.90
24802;DHT22;12898;50.520;12.152;2022-12-07T08:08:38;1.60;99.90
24802;DHT22;12898;50.520;12.152;2022-12-07T08:11:08;1.60;99.90
24802;DHT22;12898;50.520;12.152;2022-12-07T08:13:34;1.60;99.90
24802;DHT22;12898;50.520;12.152;2022-12-07T08:16:04;1.60;99.90
24802;DHT22;12898;50.520;12.152;2022-12-07T08:18:31;1.60;99.90
24802;DHT22;12898;50.520;12.152;2022-12-07T08:21:01;1.60;99.90
24802;DHT22;12898;50.520;12.152;2022-12-07T08:23:27;1.60;99.90
24802;DHT22;12898;50.520;12.152;2022-12-07T08:25:52;1.60;99.90
24802;DHT22;12898;50.520;12.152;2022-12-07T08:28:18;1.60;99.90
24802;DHT22;12898;50.520;12.152;2022-12-07T08:30:44;1.60;99.90
24802;DHT22;12898;50.520;12.152;2022-12-07T08:33:10;1.50;99.90
24802;DHT22;12898;50.520;12.152;2022-12-07T08:35:36;1.50;99.90
24802;DHT22;12898;50.520;12.152;2022-12-07T08:38:02;1.50;99.90
24802;DHT22;12898;50.520;12.152;2022-12-07T08:40:29;1.60;99.90
24802;DHT22;12898;50.520;12.152;2022-12-07T08:42:55;1.70;99.90
24802;DHT22;12898;50.520;12.152;2022-12-07T08:45:21;1.80;99.90
24802;DHT22;12898;50.520;12.152;2022-12-07T08:47:52;1.90;99.90
24802;DHT22;12898;50.520;12.152;2022-12-07T08:50:18;2.00;99.90
24802;DHT22;12898;50.520;12.152;2022-12-07T08:52:49;2.00;99.90
24802;DHT22;12898;50.520;12.152;2022-12-07T08:55:17;2.10;99.90
24802;DHT22;12898;50.520;12.152;2022-12-07T08:57:42;2.10;99.90
24802;DHT22;12898;50.520;12.152;2022-12-07T09:00:09;2.20;99.90
24802;DHT22;12898;50.520;12.152;2022-12-07T09:02:35;2.20;99.90
24802;DHT22;12898;50.520;12.152;2022-12-07T09:05:01;2.30;99.90
24802;DHT22;12898;50.520;12.152;2022-12-07T09:07:27;2.40;99.90
24802;DHT22;12898;50.520;12.152;2022-12-07T09:09:53;2.40;99.90
24802;DHT22;12898;50.520;12.152;2022-12-07T09:12:18;2.50;99.90
24802;DHT22;12898;50.520;12.152;2022-12-07T09:14:44;2.60;99.90
24802;DHT22;12898;50.520;12.152;2022-12-07T09:17:11;2.60;99.90
24802;DHT22;12898;50.520;12.152;2022-12-07T09:19:38;2.70;99.90
24802;DHT22;12898;50.520;12.152;2022-12-07T09:22:05;2.70;99.90
24802;DHT22;12898;50.520;12.152;2022-12-07T09:24:31;2.70;99.90
24802;DHT22;12898;50.520;12.152;2022-12-07T09:26:57;2.80;99.90
24802;DHT22;12898;50.520;12.152;2022-12-07T09:29:23;3.00;99.90
24802;DHT22;12898;50.520;12.152;2022-12-07T09:31:50;3.20;99.90
24802;DHT22;12898;50.520;12.152;2022-12-07T09:34:16;3.20;99.90
24802;DHT22;12898;50.520;12.152;2022-12-07T09:36:42;3.30;99.90
24802;DHT22;12898;50.520;12.152;2022-12-07T09:39:08;3.40;99.90
24802;DHT22;12898;50.520;12.152;2022-12-07T09:41:41;3.40;99.90
24802;DHT22;12898;50.520;12.152;2022-12-07T09:44:21;3.50;99.90
24802;DHT22;12898;50.520;12.152;2022-12-07T09:46:49;3.70;99.90
24802;DHT22;12898;50.520;12.152;2022-12-07T09:49:28;3.80;99.90
24802;DHT22;12898;50.520;12.152;2022-12-07T09:54:35;4.00;99.90
24802;DHT22;12898;50.520;12.152;2022-12-07T09:57:02;4.10;99.90
24802;DHT22;12898;50.520;12.152;2022-12-07T09:59:29;4.20;99.90
24802;DHT22;12898;50.520;12.152;2022-12-07T10:01:55;4.30;99.90
24802;DHT22;12898;50.520;12.152;2022-12-07T10:04:23;4.50;99.90
24802;DHT22;12898;50.520;12.152;2022-12-07T10:06:50;4.60;99.90
24802;DHT22;12898;50.520;12.152;2022-12-07T10:09:20;4.60;99.90
24802;DHT22;12898;50.520;12.152;2022-12-07T10:12:04;4.50;99.90
24802;DHT22;12898;50.520;12.152;2022-12-07T10:14:34;4.50;99.90
24802;DHT22;12898;50.520;12.152;2022-12-07T10:17:01;4.30;99.90
24802;DHT22;12898;50.520;12.152;2022-12-07T10:19:32;4.20;99.90
24802;DHT22;12898;50.520;12.152;2022-12-07T10:22:14;4.20;99.90
24802;DHT22;12898;50.520;12.152;2022-12-07T10:24:47;4.40;99.90
24802;DHT22;12898;50.520;12.152;2022-12-07T10:27:31;4.50;99.90
24802;DHT22;12898;50.520;12.152;2022-12-07T10:29:58;4.70;99.90
24802;DHT22;12898;50.520;12.152;2022-12-07T10:32:35;4.60;99.90
24802;DHT22;12898;50.520;12.152;2022-12-07T10:35:24;4.60;99.90
24802;DHT22;12898;50.520;12.152;2022-12-07T10:37:55;4.50;99.90
24802;DHT22;12898;50.520;12.152;2022-12-07T10:40:29;4.40;99.90
24802;DHT22;12898;50.520;12.152;2022-12-07T10:58:05;5.20;99.90
24802;DHT22;12898;50.520;12.152;2022-12-07T11:00:39;4.90;99.90
24802;DHT22;12898;50.520;12.152;2022-12-07T11:18:39;4.90;99.90
24802;DHT22;12898;50.520;12.152;2022-12-07T11:21:48;4.80;99.90
24802;DHT22;12898;50.520;12.152;2022-12-07T11:27:37;4.90;99.90
24802;DHT22;12898;50.520;12.152;2022-12-07T11:30:19;4.90;99.90
24802;DHT22;12898;50.520;12.152;2022-12-07T11:39:11;5.00;99.90
24802;DHT22;12898;50.520;12.152;2022-12-07T11:41:52;4.90;99.90
24802;DHT22;12898;50.520;12.152;2022-12-07T11:47:45;4.80;99.90
24802;DHT22;12898;50.520;12.152;2022-12-07T12:04:35;4.40;99.90
24802;DHT22;12898;50.520;12.152;2022-12-07T12:07:50;4.70;99.90
24802;DHT22;12898;50.520;12.152;2022-12-07T12:10:35;4.90;99.90
24802;DHT22;12898;50.520;12.152;2022-12-07T12:13:47;4.90;99.90
24802;DHT22;12898;50.520;12.152;2022-12-07T12:23:06;4.70;99.90
24802;DHT22;12898;50.520;12.152;2022-12-07T12:25:44;4.70;99.90
24802;DHT22;12898;50.520;12.152;2022-12-07T12:33:49;4.70;99.90
24802;DHT22;12898;50.520;12.152;2022-12-07T12:49:33;4.70;99.90
24802;DHT22;12898;50.520;12.152;2022-12-07T12:57:36;4.70;99.90
24802;DHT22;12898;50.520;12.152;2022-12-07T13:00:23;4.60;99.90
24802;DHT22;12898;50.520;12.152;2022-12-07T13:02:53;4.40;99.90
24802;DHT22;12898;50.520;12.152;2022-12-07T13:05:23;4.30;99.90
24802;DHT22;12898;50.520;12.152;2022-12-07T13:07:54;4.20;99.90
24802;DHT22;12898;50.520;12.152;2022-12-07T13:15:52;4.00;99.90
24802;DHT22;12898;50.520;12.152;2022-12-07T13:23:51;3.90;99.90
24802;DHT22;12898;50.520;12.152;2022-12-07T13:26:26;3.80;99.90
24802;DHT22;12898;50.520;12.152;2022-12-07T13:29:18;3.70;99.90
24802;DHT22;12898;50.520;12.152;2022-12-07T13:31:53;3.70;99.90
24802;DHT22;12898;50.520;12.152;2022-12-07T13:34:36;3.70;99.90
24802;DHT22;12898;50.520;12.152;2022-12-07T13:37:25;3.60;99.90
24802;DHT22;12898;50.520;12.152;2022-12-07T13:39:53;3.60;99.90
24802;DHT22;12898;50.520;12.152;2022-12-07T13:42:32;3.50;99.90
24802;DHT22;12898;50.520;12.152;2022-12-07T13:45:01;3.50;99.90
24802;DHT22;12898;50.520;12.152;2022-12-07T13:47:52;3.50;99.90
24802;DHT22;12898;50.520;12.152;2022-12-07T13:50:30;3.50;99.90
24802;DHT22;12898;50.520;12.152;2022-12-07T13:52:58;3.60;99.90
24802;DHT22;12898;50.520;12.152;2022-12-07T13:55:25;3.60;99.90
24802;DHT22;12898;50.520;12.152;2022-12-07T13:57:53;3.60;99.90
24802;DHT22;12898;50.520;12.152;2022-12-07T14:00:23;3.60;99.90
24802;DHT22;12898;50.520;12.152;2022-12-07T14:05:39;3.60;99.90
24802;DHT22;12898;50.520;12.152;2022-12-07T14:13:36;3.70;99.90
24802;DHT22;12898;50.520;12.152;2022-12-07T14:16:28;3.60;99.90
24802;DHT22;12898;50.520;12.152;2022-12-07T14:18:58;3.60;99.90
24802;DHT22;12898;50.520;12.152;2022-12-07T14:21:27;3.60;99.90
24802;DHT22;12898;50.520;12.152;2022-12-07T14:24:19;3.50;99.90
24802;DHT22;12898;50.520;12.152;2022-12-07T14:26:47;3.40;99.90
24802;DHT22;12898;50.520;12.152;2022-12-07T14:31:54;3.40;99.90
24802;DHT22;12898;50.520;12.152;2022-12-07T14:34:21;3.40;99.90
24802;DHT22;12898;50.520;12.152;2022-12-07T14:36:47;3.40;99.90
24802;DHT22;12898;50.520;12.152;2022-12-07T14:39:13;3.30;99.90
24802;DHT22;12898;50.520;12.152;2022-12-07T14:41:38;3.30;99.90
24802;DHT22;12898;50.520;12.152;2022-12-07T14:44:17;3.30;99.90
24802;DHT22;12898;50.520;12.152;2022-12-07T14:46:48;3.30;99.90
24802;DHT22;12898;50.520;12.152;2022-12-07T14:49:18;3.20;99.90
24802;DHT22;12898;50.520;12.152;2022-12-07T14:51:46;3.20;99.90
24802;DHT22;12898;50.520;12.152;2022-12-07T14:54:17;3.20;99.90
24802;DHT22;12898;50.520;12.152;2022-12-07T14:56:44;3.20;99.90
24802;DHT22;12898;50.520;12.152;2022-12-07T14:59:11;3.20;99.90
24802;DHT22;12898;50.520;12.152;2022-12-07T15:01:37;3.10;99.90
24802;DHT22;12898;50.520;12.152;2022-12-07T15:04:03;3.10;99.90
24802;DHT22;12898;50.520;12.152;2022-12-07T15:06:29;3.10;99.90
24802;DHT22;12898;50.520;12.152;2022-12-07T15:08:54;3.00;99.90
24802;DHT22;12898;50.520;12.152;2022-12-07T15:11:20;3.00;99.90
24802;DHT22;12898;50.520;12.152;2022-12-07T15:13:46;2.90;99.90
24802;DHT22;12898;50.520;12.152;2022-12-07T15:16:30;2.90;99.90
24802;DHT22;12898;50.520;12.152;2022-12-07T15:18:56;2.90;99.90
24802;DHT22;12898;50.520;12.152;2022-12-07T15:21:22;2.80;99.90
24802;DHT22;12898;50.520;12.152;2022-12-07T15:23:48;2.80;99.90
24802;DHT22;12898;50.520;12.152;2022-12-07T15:26:14;2.80;99.90
24802;DHT22;12898;50.520;12.152;2022-12-07T15:28:40;2.80;99.90
24802;DHT22;12898;50.520;12.152;2022-12-07T15:31:16;2.80;99.90
24802;DHT22;12898;50.520;12.152;2022-12-07T15:33:43;2.70;99.90
24802;DHT22;12898;50.520;12.152;2022-12-07T15:36:18;2.70;99.90
24802;DHT22;12898;50.520;12.152;2022-12-07T15:38:54;2.70;99.90
24802;DHT22;12898;50.520;12.152;2022-12-07T15:41:21;2.70;99.90
24802;DHT22;12898;50.520;12.152;2022-12-07T15:43:47;2.60;99.90
24802;DHT22;12898;50.520;12.152;2022-12-07T15:46:33;2.60;99.90
24802;DHT22;12898;50.520;12.152;2022-12-07T15:49:00;2.70;99.90
24802;DHT22;12898;50.520;12.152;2022-12-07T15:51:26;2.70;99.90
24802;DHT22;12898;50.520;12.152;2022-12-07T15:53:52;2.70;99.90
24802;DHT22;12898;50.520;12.152;2022-12-07T15:56:18;2.60;99.90
24802;DHT22;12898;50.520;12.152;2022-12-07T15:58:44;2.60;99.90
24802;DHT22;12898;50.520;12.152;2022-12-07T16:01:11;2.60;99.90
24802;DHT22;12898;50.520;12.152;2022-12-07T16:03:42;2.50;99.90
24802;DHT22;12898;50.520;12.152;2022-12-07T16:06:07;2.50;99.90
24802;DHT22;12898;50.520;12.152;2022-12-07T16:08:33;2.50;99.90
24802;DHT22;12898;50.520;12.152;2022-12-07T16:10:59;2.50;99.90
24802;DHT22;12898;50.520;12.152;2022-12-07T16:13:25;2.50;99.90
24802;DHT22;12898;50.520;12.152;2022-12-07T16:15:51;2.50;99.90
24802;DHT22;12898;50.520;12.152;2022-12-07T16:18:16;2.50;99.90
24802;DHT22;12898;50.520;12.152;2022-12-07T16:20:42;2.50;99.90
24802;DHT22;12898;50.520;12.152;2022-12-07T16:23:07;2.60;99.90
24802;DHT22;12898;50.520;12.152;2022-12-07T16:25:33;2.50;99.90
24802;DHT22;12898;50.520;12.152;2022-12-07T16:28:01;2.50;99.90
24802;DHT22;12898;50.520;12.152;2022-12-07T16:30:27;2.50;99.90
24802;DHT22;12898;50.520;12.152;2022-12-07T16:32:53;2.50;99.90
24802;DHT22;12898;50.520;12.152;2022-12-07T16:35:19;2.50;99.90
24802;DHT22;12898;50.520;12.152;2022-12-07T16:37:44;2.50;99.90
24802;DHT22;12898;50.520;12.152;2022-12-07T16:40:11;2.40;99.90
24802;DHT22;12898;50.520;12.152;2022-12-07T16:42:37;2.40;99.90
24802;DHT22;12898;50.520;12.152;2022-12-07T16:45:03;2.50;99.90
24802;DHT22;12898;50.520;12.152;2022-12-07T16:47:29;2.50;99.90
24802;DHT22;12898;50.520;12.152;2022-12-07T16:49:54;2.40;99.90
24802;DHT22;12898;50.520;12.152;2022-12-07T16:52:20;2.50;99.90
24802;DHT22;12898;50.520;12.152;2022-12-07T16:54:48;2.40;99.90
24802;DHT22;12898;50.520;12.152;2022-12-07T16:57:16;2.40;99.90
24802;DHT22;12898;50.520;12.152;2022-12-07T16:59:42;2.40;99.90
24802;DHT22;12898;50.520;12.152;2022-12-07T17:02:11;2.50;99.90
24802;DHT22;12898;50.520;12.152;2022-12-07T17:04:37;2.40;99.90
24802;DHT22;12898;50.520;12.152;2022-12-07T17:07:05;2.40;99.90
24802;DHT22;12898;50.520;12.152;2022-12-07T17:09:31;2.40;99.90
24802;DHT22;12898;50.520;12.152;2022-12-07T17:11:57;2.40;99.90
24802;DHT22;12898;50.520;12.152;2022-12-07T17:14:23;2.40;99.90
24802;DHT22;12898;50.520;12.152;2022-12-07T17:17:07;2.40;99.90
24802;DHT22;12898;50.520;12.152;2022-12-07T17:19:33;2.40;99.90
24802;DHT22;12898;50.520;12.152;2022-12-07T17:21:58;2.40;99.90
24802;DHT22;12898;50.520;12.152;2022-12-07T17:24:24;2.40;99.90
24802;DHT22;12898;50.520;12.152;2022-12-07T17:26:50;2.40;99.90
24802;DHT22;12898;50.520;12.152;2022-12-07T17:29:17;2.40;99.90
24802;DHT22;12898;50.520;12.152;2022-12-07T17:31:44;2.40;99.90
24802;DHT22;12898;50.520;12.152;2022-12-07T17:34:11;2.40;99.90
24802;DHT22;12898;50.520;12.152;2022-12-07T17:36:38;2.40;99.90
24802;DHT22;12898;50.520;12.152;2022-12-07T17:39:13;2.50;99.90
24802;DHT22;12898;50.520;12.152;2022-12-07T17:41:40;2.50;99.90
24802;DHT22;12898;50.520;12.152;2022-12-07T17:44:24;2.40;99.90
24802;DHT22;12898;50.520;12.152;2022-12-07T17:46:52;2.40;99.90
24802;DHT22;12898;50.520;12.152;2022-12-07T17:49:20;2.40;99.90
24802;DHT22;12898;50.520;12.152;2022-12-07T17:51:46;2.40;99.90
24802;DHT22;12898;50.520;12.152;2022-12-07T17:54:31;2.40;99.90
24802;DHT22;12898;50.520;12.152;2022-12-07T17:56:57;2.40;99.90
24802;DHT22;12898;50.520;12.152;2022-12-07T17:59:23;2.40;99.90
24802;DHT22;12898;50.520;12.152;2022-12-07T18:01:49;2.40;99.90
24802;DHT22;12898;50.520;12.152;2022-12-07T18:04:15;2.40;99.90
24802;DHT22;12898;50.520;12.152;2022-12-07T18:06:41;2.40;99.90
24802;DHT22;12898;50.520;12.152;2022-12-07T18:09:08;2.40;99.90
24802;DHT22;12898;50.520;12.152;2022-12-07T18:11:35;2.30;99.90
24802;DHT22;12898;50.520;12.152;2022-12-07T18:14:01;2.30;99.90